createdAt,value
2023-03-24T00:04:42.890Z,13.10
2023-03-24T00:09:46.655Z,13.10
2023-03-24T00:14:48.662Z,13.20
2023-03-24T00:19:50.545Z,13.20
2023-03-24T00:24:52.668Z,13.10
2023-03-24T00:29:54.559Z,13.00
2023-03-24T00:34:56.651Z,13.10
2023-03-24T00:40:00.128Z,13.00
2023-03-24T00:45:04.267Z,12.90
2023-03-24T00:50:09.673Z,12.90
2023-03-24T00:55:16.227Z,12.90
2023-03-24T01:00:24.860Z,12.80
2023-03-24T01:05:30.807Z,12.80
2023-03-24T01:10:35.700Z,12.70
2023-03-24T01:15:38.764Z,12.60
2023-03-24T01:20:45.884Z,12.70
2023-03-24T01:25:48.945Z,12.70
2023-03-24T01:30:52.606Z,12.70
2023-03-24T01:35:54.458Z,12.60
2023-03-24T01:40:56.311Z,12.70
2023-03-24T01:46:05.436Z,12.60
2023-03-24T01:51:37.146Z,12.50
2023-03-24T01:56:45.063Z,12.50
2023-03-24T02:01:47.789Z,12.50
2023-03-24T02:06:50.795Z,12.60
2023-03-24T02:11:52.810Z,12.60
2023-03-24T02:17:03.521Z,12.60
2023-03-24T02:22:36.102Z,12.50
2023-03-24T02:27:59.182Z,12.50
2023-03-24T02:33:33.400Z,12.50
2023-03-24T02:38:53.936Z,12.50
2023-03-24T02:44:22.657Z,12.50
2023-03-24T02:49:24.696Z,12.50
2023-03-24T02:54:43.127Z,12.50
2023-03-24T02:59:57.412Z,12.40
2023-03-24T03:05:08.023Z,12.40
2023-03-24T03:10:47.237Z,12.50
2023-03-24T03:15:54.142Z,12.50
2023-03-24T03:21:02.690Z,12.60
2023-03-24T03:26:09.943Z,12.50
2023-03-24T03:31:16.317Z,12.50
2023-03-24T03:36:28.538Z,12.30
2023-03-24T03:41:31.095Z,12.50
2023-03-24T03:46:33.281Z,12.40
2023-03-24T03:51:35.201Z,12.50
2023-03-24T03:56:38.151Z,12.60
2023-03-24T04:01:42.091Z,12.60
2023-03-24T04:06:44.677Z,12.70
2023-03-24T04:12:40.877Z,12.70
2023-03-24T04:18:06.507Z,12.60
2023-03-24T04:23:40.126Z,12.70
2023-03-24T04:28:58.389Z,13.10
2023-03-24T04:34:16.407Z,13.10
2023-03-24T04:39:28.358Z,13.00
2023-03-24T04:44:33.343Z,12.90
2023-03-24T04:49:41.674Z,12.80
2023-03-24T04:54:43.470Z,12.70
2023-03-24T04:59:46.223Z,13.10
2023-03-24T05:04:48.053Z,12.60
2023-03-24T05:09:50.110Z,12.60
2023-03-24T05:14:51.856Z,12.80
2023-03-24T05:19:53.826Z,13.10
2023-03-24T05:24:55.467Z,13.10
2023-03-24T05:29:57.233Z,13.20
2023-03-24T05:35:00.895Z,13.10
2023-03-24T05:40:03.076Z,13.30
2023-03-24T05:45:06.537Z,13.50
2023-03-24T05:50:09.122Z,13.50
2023-03-24T05:55:11.045Z,13.70
2023-03-24T06:00:17.533Z,13.80
2023-03-24T06:05:20.366Z,13.60
2023-03-24T06:10:22.298Z,13.40
2023-03-24T06:15:28.306Z,13.30
2023-03-24T06:20:30.110Z,13.40
2023-03-24T06:25:33.644Z,13.10
2023-03-24T06:30:37.285Z,13.20
2023-03-24T06:35:40.008Z,13.20
2023-03-24T06:40:42.078Z,13.10
2023-03-24T06:45:46.213Z,13.10
2023-03-24T06:50:48.555Z,13.10
2023-03-24T07:00:53.896Z,13.00
2023-03-24T07:05:55.761Z,13.10
2023-03-24T07:10:58.203Z,13.20
2023-03-24T07:21:02.310Z,13.30
2023-03-24T07:26:04.335Z,13.20
2023-03-24T07:31:11.407Z,13.30
2023-03-24T07:36:13.465Z,13.40
2023-03-24T07:41:15.417Z,13.30
2023-03-24T07:46:17.492Z,13.30
2023-03-24T07:51:20.077Z,13.40
2023-03-24T07:56:22.214Z,13.20
2023-03-24T08:01:24.117Z,13.20
2023-03-24T08:06:25.833Z,13.20
2023-03-24T08:11:27.657Z,13.10
2023-03-24T08:16:29.540Z,13.20
2023-03-24T08:21:31.857Z,13.00
2023-03-24T08:26:35.442Z,13.00
2023-03-24T08:31:38.083Z,13.10
2023-03-24T08:36:41.378Z,13.00
2023-03-24T08:41:43.186Z,13.10
2023-03-24T08:46:46.216Z,13.10
2023-03-24T08:56:51.318Z,12.90
2023-03-24T09:01:53.388Z,13.20
2023-03-24T09:07:02.809Z,13.30
2023-03-24T09:12:05.141Z,13.40
2023-03-24T09:17:07.130Z,13.40
2023-03-24T09:22:09.020Z,13.40
2023-03-24T09:32:13.283Z,13.40
2023-03-24T09:37:15.358Z,13.40
2023-03-24T09:42:26.246Z,13.60
2023-03-24T09:47:42.972Z,13.60
2023-03-24T09:52:51.336Z,13.60
2023-03-24T09:57:55.710Z,13.60
2023-03-24T10:03:22.974Z,13.40
2023-03-24T10:08:37.789Z,13.50
2023-03-24T10:14:04.284Z,13.80
2023-03-24T10:19:22.822Z,13.90
2023-03-24T10:24:36.601Z,13.90
2023-03-24T10:29:40.941Z,14.20
2023-03-24T10:34:47.537Z,15.00
2023-03-24T10:39:49.797Z,15.30
2023-03-24T10:50:12.622Z,15.40
2023-03-24T10:55:19.844Z,15.20
2023-03-24T11:00:32.425Z,15.20
2023-03-24T11:05:38.455Z,14.90
2023-03-24T11:10:40.367Z,14.70
2023-03-24T11:16:14.348Z,14.70
2023-03-24T11:21:16.729Z,14.80
2023-03-24T11:26:29.056Z,14.70
2023-03-24T11:31:38.631Z,14.70
2023-03-24T11:37:09.436Z,14.90
2023-03-24T11:42:12.118Z,15.60
2023-03-24T11:47:31.065Z,15.50
2023-03-24T11:52:44.213Z,16.00
2023-03-24T11:58:01.121Z,16.00
2023-03-24T12:03:49.211Z,15.80
2023-03-24T12:09:14.631Z,15.70
2023-03-24T12:14:28.812Z,15.70
2023-03-24T12:20:04.048Z,15.60
2023-03-24T12:25:26.607Z,15.40
2023-03-24T12:30:31.561Z,15.40
2023-03-24T12:35:52.740Z,14.30
2023-03-24T12:41:00.643Z,14.40
2023-03-24T12:46:16.290Z,14.60
2023-03-24T12:51:24.634Z,14.70
2023-03-24T12:56:33.129Z,14.60
2023-03-24T13:01:52.853Z,14.80
2023-03-24T13:07:11.602Z,14.80
2023-03-24T13:12:31.883Z,14.70
2023-03-24T13:17:41.913Z,14.90
2023-03-24T13:22:45.125Z,18.90
2023-03-24T13:27:51.125Z,15.10
2023-03-24T13:32:55.809Z,15.10
2023-03-24T13:38:05.804Z,14.70
2023-03-24T13:43:13.079Z,13.70
2023-03-24T13:48:41.589Z,13.40
2023-03-24T13:54:00.884Z,12.60
2023-03-24T13:59:03.300Z,12.50
2023-03-24T14:04:21.835Z,12.50
2023-03-24T14:09:28.135Z,12.60
2023-03-24T14:14:31.299Z,12.60
2023-03-24T14:19:40.795Z,12.60
2023-03-24T14:24:54.736Z,12.60
2023-03-24T14:30:06.232Z,12.30
2023-03-24T14:35:33.207Z,12.20
2023-03-24T14:40:38.596Z,12.00
2023-03-24T14:46:01.037Z,12.00
2023-03-24T14:51:36.690Z,12.20
2023-03-24T14:56:42.340Z,12.20
2023-03-24T15:01:48.781Z,12.00
2023-03-24T15:06:52.285Z,12.00
2023-03-24T15:12:00.448Z,13.20
2023-03-24T15:17:09.042Z,11.80
2023-03-24T15:22:14.049Z,11.80
2023-03-24T15:27:29.030Z,11.80
2023-03-24T15:32:32.282Z,12.10
2023-03-24T15:42:45.151Z,12.10
2023-03-24T15:47:50.601Z,12.10
2023-03-24T15:53:03.326Z,12.10
2023-03-24T15:58:29.213Z,12.00
2023-03-24T16:03:34.099Z,12.20
2023-03-24T16:08:41.210Z,12.20
2023-03-24T16:13:45.711Z,12.10
2023-03-24T16:18:50.164Z,12.20
2023-03-24T16:23:54.376Z,12.30
2023-03-24T16:29:03.121Z,12.30
2023-03-24T16:34:05.420Z,12.20
2023-03-24T16:39:16.214Z,12.00
2023-03-24T16:44:19.008Z,11.10
2023-03-24T16:49:22.305Z,12.00
2023-03-24T16:54:24.410Z,12.10
2023-03-24T16:59:27.086Z,12.30
2023-03-24T17:04:31.501Z,12.70
2023-03-24T17:09:35.516Z,12.60
2023-03-24T17:19:49.648Z,12.50
2023-03-24T17:24:57.661Z,12.30
2023-03-24T17:29:59.436Z,12.30
2023-03-24T17:35:02.794Z,12.30
2023-03-24T17:40:11.872Z,12.10
2023-03-24T17:45:16.559Z,12.10
2023-03-24T17:50:18.638Z,12.00
2023-03-24T17:55:20.752Z,11.90
2023-03-24T18:00:22.911Z,11.90
2023-03-24T18:05:24.957Z,11.80
2023-03-24T18:10:26.903Z,11.80
2023-03-24T18:15:28.974Z,11.80
2023-03-24T18:20:32.051Z,11.60
2023-03-24T18:25:34.064Z,11.60
2023-03-24T18:30:36.213Z,11.60
2023-03-24T18:35:38.409Z,11.80
2023-03-24T18:40:40.736Z,11.60
2023-03-24T18:45:42.511Z,11.50
2023-03-24T18:50:44.212Z,11.50
2023-03-24T18:55:48.133Z,11.40
2023-03-24T19:00:55.061Z,11.40
2023-03-24T19:06:01.920Z,11.50
2023-03-24T19:11:04.476Z,11.80
2023-03-24T19:16:09.043Z,11.30
2023-03-24T19:21:11.755Z,11.30
2023-03-24T19:26:14.013Z,11.30
2023-03-24T19:31:18.582Z,11.30
2023-03-24T19:36:20.580Z,11.30
2023-03-24T19:41:26.340Z,11.30
2023-03-24T19:46:28.373Z,11.30
2023-03-24T19:51:30.555Z,11.30
2023-03-24T19:56:32.609Z,11.20
2023-03-24T20:01:35.825Z,11.20
2023-03-24T20:06:37.888Z,11.10
2023-03-24T20:11:40.765Z,11.10
2023-03-24T20:16:43.019Z,11.00
2023-03-24T20:21:44.849Z,11.00
2023-03-24T20:26:48.401Z,10.90
2023-03-24T20:31:50.527Z,10.90
2023-03-24T20:36:52.268Z,11.00
2023-03-24T20:41:54.353Z,10.90
2023-03-24T20:46:57.437Z,10.90
2023-03-24T20:51:59.230Z,11.00
2023-03-24T20:57:01.102Z,10.90
2023-03-24T21:02:06.317Z,11.00
2023-03-24T21:07:08.562Z,10.90
2023-03-24T21:12:10.604Z,10.90
2023-03-24T21:17:13.487Z,10.90
2023-03-24T21:22:15.741Z,10.90
2023-03-24T21:27:17.597Z,10.80
2023-03-24T21:32:19.479Z,10.80
2023-03-24T21:37:21.643Z,10.70
2023-03-24T21:42:24.135Z,10.60
2023-03-24T21:47:27.300Z,10.70
2023-03-24T21:52:29.695Z,10.70
2023-03-24T21:57:31.812Z,10.70
2023-03-24T22:02:35.023Z,10.80
2023-03-24T22:07:37.499Z,10.90
2023-03-24T22:12:40.064Z,10.90
2023-03-24T22:17:42.091Z,10.90
2023-03-24T22:27:50.744Z,10.90
2023-03-24T22:32:54.602Z,10.90
2023-03-24T22:37:56.643Z,10.80
2023-03-24T22:42:58.709Z,10.80
2023-03-24T22:48:00.827Z,10.80
2023-03-24T22:53:02.698Z,10.80
2023-03-24T22:58:05.147Z,10.90
2023-03-24T23:03:07.472Z,11.00
2023-03-24T23:08:10.087Z,11.00
2023-03-24T23:13:12.765Z,11.10
2023-03-24T23:18:14.835Z,10.90
2023-03-24T23:23:16.762Z,10.40
2023-03-24T23:28:18.715Z,10.20
2023-03-24T23:33:22.655Z,9.90
2023-03-24T23:43:27.416Z,9.60
2023-03-24T23:48:31.888Z,9.40
2023-03-24T23:53:34.403Z,9.50
2023-03-24T23:58:38.686Z,9.50
